createdAt,value
2022-09-04T00:02:21.730Z,17.42
2022-09-04T00:04:52.273Z,17.39
2022-09-04T00:07:27.103Z,17.37
2022-09-04T00:10:16.145Z,17.32
2022-09-04T00:13:09.782Z,17.28
2022-09-04T00:15:44.786Z,17.26
2022-09-04T00:18:30.401Z,17.27
2022-09-04T00:21:15.751Z,17.20
2022-09-04T00:23:52.810Z,17.17
2022-09-04T00:26:36.945Z,17.15
2022-09-04T00:29:13.563Z,17.16
2022-09-04T00:31:48.282Z,17.20
2022-09-04T00:34:32.461Z,17.15
2022-09-04T00:37:06.501Z,17.13
2022-09-04T00:39:45.090Z,17.12
2022-09-04T00:42:35.867Z,17.14
2022-09-04T00:45:41.267Z,17.10
2022-09-04T00:48:25.220Z,17.14
2022-09-04T00:51:16.037Z,17.12
2022-09-04T00:53:52.563Z,17.12
2022-09-04T00:56:53.912Z,17.12
2022-09-04T00:59:56.123Z,17.14
2022-09-04T01:02:50.830Z,17.12
2022-09-04T01:05:45.894Z,17.10
2022-09-04T01:08:35.604Z,17.06
2022-09-04T01:11:27.564Z,17.05
2022-09-04T01:14:10.855Z,17.05
2022-09-04T01:16:53.570Z,17.06
2022-09-04T01:19:35.783Z,17.05
2022-09-04T01:22:21.512Z,17.05
2022-09-04T01:25:18.974Z,17.06
2022-09-04T01:28:08.501Z,17.07
2022-09-04T01:30:47.010Z,17.06
2022-09-04T01:33:37.354Z,17.05
2022-09-04T01:36:27.948Z,17.03
2022-09-04T01:38:59.036Z,17.01
2022-09-04T01:41:39.460Z,16.95
2022-09-04T01:44:09.943Z,16.96
2022-09-04T01:46:50.169Z,16.96
2022-09-04T01:49:37.428Z,16.93
2022-09-04T01:52:26.596Z,16.93
2022-09-04T01:55:00.788Z,16.89
2022-09-04T01:57:59.148Z,16.85
2022-09-04T02:00:33.921Z,16.81
2022-09-04T02:03:22.403Z,16.83
2022-09-04T02:06:09.415Z,16.82
2022-09-04T02:08:44.622Z,16.80
2022-09-04T02:11:20.605Z,16.76
2022-09-04T02:14:17.814Z,16.71
2022-09-04T02:17:04.032Z,16.59
2022-09-04T02:19:52.970Z,16.63
2022-09-04T02:22:29.259Z,16.62
2022-09-04T02:25:11.032Z,16.57
2022-09-04T02:27:59.556Z,16.53
2022-09-04T02:30:33.210Z,16.50
2022-09-04T02:33:21.222Z,16.46
2022-09-04T02:36:06.208Z,16.41
2022-09-04T02:38:52.618Z,16.39
2022-09-04T02:41:42.748Z,16.38
2022-09-04T02:44:17.051Z,16.37
2022-09-04T02:47:07.857Z,16.35
2022-09-04T02:49:55.360Z,16.36
2022-09-04T02:52:47.549Z,16.35
2022-09-04T02:55:45.422Z,16.34
2022-09-04T02:58:39.692Z,16.30
2022-09-04T03:01:31.404Z,16.29
2022-09-04T03:04:13.812Z,16.25
2022-09-04T03:06:44.477Z,16.30
2022-09-04T03:09:20.061Z,16.25
2022-09-04T03:12:14.857Z,16.24
2022-09-04T03:15:00.200Z,16.19
2022-09-04T03:17:44.411Z,16.19
2022-09-04T03:20:25.303Z,16.19
2022-09-04T03:22:59.688Z,16.17
2022-09-04T03:25:40.565Z,16.18
2022-09-04T03:28:13.644Z,16.19
2022-09-04T03:30:42.511Z,16.18
2022-09-04T03:33:27.466Z,16.18
2022-09-04T03:36:08.158Z,16.17
2022-09-04T03:38:43.738Z,16.16
2022-09-04T03:41:30.229Z,16.16
2022-09-04T03:44:00.509Z,16.12
2022-09-04T03:46:49.276Z,16.11
2022-09-04T03:49:34.274Z,16.10
2022-09-04T03:52:11.154Z,16.13
2022-09-04T03:54:55.023Z,16.11
2022-09-04T03:57:52.869Z,16.08
2022-09-04T04:00:22.605Z,16.06
2022-09-04T04:02:59.321Z,16.06
2022-09-04T04:05:37.961Z,16.01
2022-09-04T04:08:27.704Z,15.99
2022-09-04T04:11:01.174Z,15.99
2022-09-04T04:13:53.353Z,15.99
2022-09-04T04:16:40.611Z,15.95
2022-09-04T04:19:46.986Z,15.90
2022-09-04T04:22:29.746Z,15.88
2022-09-04T04:25:16.445Z,15.85
2022-09-04T04:28:09.197Z,15.84
2022-09-04T04:30:52.572Z,15.81
2022-09-04T04:33:42.404Z,15.81
2022-09-04T04:36:45.610Z,15.80
2022-09-04T04:39:32.590Z,15.77
2022-09-04T04:42:12.253Z,15.75
2022-09-04T04:45:23.338Z,15.74
2022-09-04T04:48:12.428Z,15.72
2022-09-04T04:50:47.685Z,15.72
2022-09-04T04:53:25.956Z,15.70
2022-09-04T04:56:32.914Z,15.70
2022-09-04T04:59:20.693Z,15.67
2022-09-04T05:01:56.202Z,15.67
2022-09-04T05:04:31.705Z,15.67
2022-09-04T05:07:22.215Z,15.64
2022-09-04T05:10:07.080Z,15.66
2022-09-04T05:13:03.478Z,15.67
2022-09-04T05:16:08.415Z,15.67
2022-09-04T05:18:48.682Z,15.65
2022-09-04T05:21:43.477Z,15.66
2022-09-04T05:24:38.690Z,15.67
2022-09-04T05:27:31.029Z,15.66
2022-09-04T05:30:13.007Z,15.68
2022-09-04T05:32:54.832Z,15.67
2022-09-04T05:35:36.377Z,15.70
2022-09-04T05:38:36.729Z,15.74
2022-09-04T05:41:15.458Z,15.75
2022-09-04T05:44:07.014Z,15.77
2022-09-04T05:46:52.297Z,15.81
2022-09-04T05:49:44.464Z,15.82
2022-09-04T05:52:42.410Z,15.90
2022-09-04T05:55:32.892Z,15.98
2022-09-04T05:58:34.390Z,16.01
2022-09-04T06:01:15.558Z,16.15
2022-09-04T06:03:43.782Z,16.19
2022-09-04T06:06:15.198Z,16.27
2022-09-04T06:08:56.813Z,16.32
2022-09-04T06:11:42.777Z,16.35
2022-09-04T06:14:31.484Z,16.45
2022-09-04T06:17:28.906Z,16.47
2022-09-04T06:19:59.100Z,16.56
2022-09-04T06:22:40.729Z,16.56
2022-09-04T06:25:25.560Z,16.71
2022-09-04T06:28:31.382Z,16.80
2022-09-04T06:31:20.138Z,16.83
2022-09-04T06:34:00.882Z,16.93
2022-09-04T06:36:42.656Z,16.95
2022-09-04T06:39:31.606Z,17.07
2022-09-04T06:42:17.367Z,17.16
2022-09-04T06:44:44.802Z,17.19
2022-09-04T06:47:27.399Z,17.30
2022-09-04T06:50:30.212Z,17.38
2022-09-04T06:53:04.151Z,17.50
2022-09-04T06:55:45.791Z,17.60
2022-09-04T06:58:27.993Z,17.80
2022-09-04T07:01:21.624Z,17.97
2022-09-04T07:03:56.707Z,18.16
2022-09-04T07:06:48.645Z,18.21
2022-09-04T07:09:28.150Z,18.30
2022-09-04T07:12:33.585Z,18.40
2022-09-04T07:15:40.308Z,18.73
2022-09-04T07:18:34.866Z,18.86
2022-09-04T07:21:15.389Z,19.02
2022-09-04T07:23:48.810Z,19.14
2022-09-04T07:26:33.406Z,19.35
2022-09-04T07:29:25.748Z,19.54
2022-09-04T07:32:18.812Z,19.54
2022-09-04T07:34:56.349Z,19.74
2022-09-04T07:37:58.424Z,19.84
2022-09-04T07:40:40.486Z,20.05
2022-09-04T07:43:16.020Z,20.31
2022-09-04T07:45:47.565Z,20.41
2022-09-04T07:48:33.348Z,20.61
2022-09-04T07:51:10.212Z,20.93
2022-09-04T07:54:11.518Z,20.85
2022-09-04T07:57:05.929Z,21.18
2022-09-04T07:59:59.088Z,21.27
2022-09-04T08:02:58.533Z,21.60
2022-09-04T08:05:53.066Z,21.76
2022-09-04T08:08:53.238Z,22.02
2022-09-04T08:11:49.938Z,22.04
2022-09-04T08:14:32.448Z,22.10
2022-09-04T08:17:25.252Z,22.15
2022-09-04T08:20:04.622Z,22.44
2022-09-04T08:22:34.875Z,22.73
2022-09-04T08:25:30.803Z,22.81
2022-09-04T08:28:01.177Z,22.70
2022-09-04T08:30:36.801Z,22.86
2022-09-04T08:33:44.991Z,23.09
2022-09-04T08:36:32.606Z,23.01
2022-09-04T08:39:07.160Z,23.41
2022-09-04T08:41:57.993Z,23.68
2022-09-04T08:44:36.379Z,23.81
2022-09-04T08:47:24.095Z,23.71
2022-09-04T08:50:16.970Z,23.91
2022-09-04T08:53:06.075Z,24.15
2022-09-04T08:56:10.105Z,24.51
2022-09-04T08:59:07.270Z,24.47
2022-09-04T09:02:19.423Z,25.02
2022-09-04T09:05:01.883Z,25.32
2022-09-04T09:08:00.391Z,25.48
2022-09-04T09:10:55.423Z,25.52
2022-09-04T09:13:22.859Z,25.92
2022-09-04T09:16:14.110Z,26.31
2022-09-04T09:19:09.009Z,26.45
2022-09-04T09:21:49.325Z,26.34
2022-09-04T09:24:25.905Z,26.88
2022-09-04T09:27:11.757Z,26.69
2022-09-04T09:29:51.906Z,26.77
2022-09-04T09:32:52.184Z,27.39
2022-09-04T09:35:55.693Z,27.51
2022-09-04T09:39:00.406Z,27.47
2022-09-04T09:42:00.840Z,27.61
2022-09-04T09:44:49.686Z,27.90
2022-09-04T09:47:54.644Z,28.26
2022-09-04T09:50:47.812Z,28.22
2022-09-04T09:53:28.945Z,28.19
2022-09-04T09:56:17.126Z,27.99
2022-09-04T09:59:12.442Z,27.64
2022-09-04T10:02:20.078Z,27.69
2022-09-04T10:05:26.117Z,28.04
2022-09-04T10:08:05.607Z,28.50
2022-09-04T10:11:12.026Z,28.64
2022-09-04T10:13:58.924Z,28.51
2022-09-04T10:16:58.206Z,28.30
2022-09-04T10:20:08.789Z,28.33
2022-09-04T10:22:43.104Z,28.32
2022-09-04T10:25:37.700Z,27.73
2022-09-04T10:28:47.451Z,28.66
2022-09-04T10:31:45.642Z,28.81
2022-09-04T10:34:48.406Z,29.01
2022-09-04T10:38:09.738Z,28.98
2022-09-04T10:40:51.309Z,29.30
2022-09-04T10:43:39.405Z,29.50
2022-09-04T10:46:25.222Z,29.85
2022-09-04T10:49:39.030Z,29.93
2022-09-04T10:52:33.189Z,30.00
2022-09-04T10:55:17.634Z,29.43
2022-09-04T10:57:53.512Z,29.96
2022-09-04T11:00:23.744Z,30.27
2022-09-04T11:03:22.103Z,28.98
2022-09-04T11:06:15.803Z,28.74
2022-09-04T11:09:01.723Z,28.51
2022-09-04T11:12:09.437Z,29.91
2022-09-04T11:14:57.161Z,30.31
2022-09-04T11:17:46.129Z,30.42
2022-09-04T11:20:36.414Z,30.48
2022-09-04T11:23:25.520Z,30.66
2022-09-04T11:26:08.285Z,30.45
2022-09-04T11:28:57.101Z,30.31
2022-09-04T11:31:44.733Z,30.30
2022-09-04T11:34:36.856Z,31.11
2022-09-04T11:37:43.491Z,30.84
2022-09-04T11:40:35.739Z,30.39
2022-09-04T11:43:23.606Z,30.87
2022-09-04T11:46:00.584Z,31.15
2022-09-04T11:48:53.571Z,30.72
2022-09-04T11:51:48.930Z,30.67
2022-09-04T11:54:35.068Z,30.37
2022-09-04T11:57:12.419Z,29.77
2022-09-04T11:59:59.032Z,29.10
2022-09-04T12:02:38.601Z,29.34
2022-09-04T12:05:40.410Z,29.29
2022-09-04T12:08:21.309Z,29.00
2022-09-04T12:11:11.911Z,29.34
2022-09-04T12:14:02.035Z,29.38
2022-09-04T12:16:44.273Z,29.00
2022-09-04T12:19:16.136Z,28.56
2022-09-04T12:22:36.458Z,28.57
2022-09-04T12:25:19.284Z,28.34
2022-09-04T12:27:49.722Z,28.38
2022-09-04T12:30:55.403Z,28.64
2022-09-04T12:34:03.466Z,28.76
2022-09-04T12:36:59.339Z,29.64
2022-09-04T12:39:49.256Z,30.11
2022-09-04T12:42:25.598Z,30.48
2022-09-04T12:45:09.963Z,30.44
2022-09-04T12:47:41.658Z,30.82
2022-09-04T12:50:35.562Z,31.14
2022-09-04T12:53:14.996Z,31.08
2022-09-04T12:56:00.610Z,31.38
2022-09-04T12:58:47.894Z,30.46
2022-09-04T13:01:21.376Z,30.63
2022-09-04T13:03:59.841Z,30.83
2022-09-04T13:06:48.222Z,30.33
2022-09-04T13:09:33.555Z,30.20
2022-09-04T13:12:14.086Z,30.31
2022-09-04T13:14:57.547Z,30.35
2022-09-04T13:17:43.478Z,30.11
2022-09-04T13:20:24.435Z,30.37
2022-09-04T13:23:04.503Z,30.51
2022-09-04T13:25:55.130Z,30.08
2022-09-04T13:28:50.846Z,30.14
2022-09-04T13:31:21.379Z,29.70
2022-09-04T13:34:07.655Z,29.77
2022-09-04T13:36:46.228Z,30.06
2022-09-04T13:39:36.059Z,29.51
2022-09-04T13:42:12.381Z,29.75
2022-09-04T13:45:00.226Z,29.66
2022-09-04T13:47:43.317Z,29.54
2022-09-04T13:50:22.489Z,29.50
2022-09-04T13:53:22.974Z,29.30
2022-09-04T13:55:54.560Z,29.33
2022-09-04T13:58:26.065Z,29.52
2022-09-04T14:00:59.320Z,29.17
2022-09-04T14:03:39.786Z,29.32
2022-09-04T14:06:12.922Z,29.22
2022-09-04T14:08:43.181Z,28.96
2022-09-04T14:11:32.184Z,29.35
2022-09-04T14:14:41.335Z,29.37
2022-09-04T14:17:10.437Z,29.25
2022-09-04T14:20:19.441Z,28.99
2022-09-04T14:23:11.553Z,29.06
2022-09-04T14:26:00.801Z,29.04
2022-09-04T14:28:40.441Z,28.98
2022-09-04T14:31:22.685Z,28.71
2022-09-04T14:34:27.780Z,28.94
2022-09-04T14:37:10.351Z,29.05
2022-09-04T14:39:48.951Z,29.06
2022-09-04T14:42:42.535Z,28.96
2022-09-04T14:45:30.817Z,28.97
2022-09-04T14:48:05.310Z,29.02
2022-09-04T14:50:45.522Z,28.69
2022-09-04T14:53:22.512Z,28.54
2022-09-04T14:56:13.203Z,28.41
2022-09-04T14:58:50.140Z,28.48
2022-09-04T15:01:21.088Z,28.52
2022-09-04T15:04:13.054Z,28.67
2022-09-04T15:07:10.316Z,28.43
2022-09-04T15:09:42.023Z,28.46
2022-09-04T15:12:24.767Z,28.64
2022-09-04T15:15:31.602Z,28.66
2022-09-04T15:18:15.895Z,28.70
2022-09-04T15:20:57.181Z,28.63
2022-09-04T15:23:46.819Z,28.77
2022-09-04T15:26:37.608Z,28.39
2022-09-04T15:29:27.246Z,28.63
2022-09-04T15:32:05.071Z,28.43
2022-09-04T15:34:38.146Z,28.41
2022-09-04T15:37:19.921Z,28.31
2022-09-04T15:40:13.725Z,28.32
2022-09-04T15:42:47.436Z,28.17
2022-09-04T15:45:24.148Z,28.20
2022-09-04T15:48:03.574Z,28.19
2022-09-04T15:50:36.409Z,28.08
2022-09-04T15:53:27.242Z,28.08
2022-09-04T15:56:09.288Z,28.14
2022-09-04T15:58:47.194Z,28.20
2022-09-04T16:01:20.172Z,28.21
2022-09-04T16:04:30.119Z,27.91
2022-09-04T16:07:23.856Z,27.70
2022-09-04T16:10:00.158Z,27.58
2022-09-04T16:12:33.455Z,27.62
2022-09-04T16:15:17.402Z,27.33
2022-09-04T16:17:54.516Z,27.07
2022-09-04T16:20:35.398Z,27.06
2022-09-04T16:23:08.651Z,26.94
2022-09-04T16:25:41.737Z,26.93
2022-09-04T16:28:33.118Z,26.87
2022-09-04T16:31:12.481Z,26.85
2022-09-04T16:33:51.682Z,26.91
2022-09-04T16:36:26.084Z,26.92
2022-09-04T16:39:06.421Z,26.90
2022-09-04T16:41:44.507Z,26.79
2022-09-04T16:44:31.104Z,26.65
2022-09-04T16:47:24.454Z,26.65
2022-09-04T16:50:13.190Z,26.55
2022-09-04T16:53:12.898Z,26.57
2022-09-04T16:55:48.029Z,26.59
2022-09-04T16:58:40.360Z,26.59
2022-09-04T17:01:16.308Z,26.53
2022-09-04T17:04:13.869Z,26.48
2022-09-04T17:07:05.172Z,26.47
2022-09-04T17:09:49.661Z,26.50
2022-09-04T17:12:20.110Z,26.47
2022-09-04T17:15:08.586Z,26.44
2022-09-04T17:17:41.192Z,26.37
2022-09-04T17:20:11.095Z,26.25
2022-09-04T17:28:55.228Z,26.25
2022-09-04T17:29:18.805Z,26.11
2022-09-04T17:29:34.894Z,26.01
2022-09-04T17:34:04.298Z,25.82
2022-09-04T17:40:35.641Z,25.74
2022-09-04T17:40:53.289Z,25.64
2022-09-04T17:41:37.880Z,25.50
2022-09-04T17:44:31.806Z,25.34
2022-09-04T17:47:03.763Z,25.13
2022-09-04T17:49:35.105Z,24.97
2022-09-04T17:52:09.090Z,24.77
2022-09-04T17:54:48.889Z,24.64
2022-09-04T17:57:32.307Z,24.47
2022-09-04T18:00:06.421Z,24.34
2022-09-04T18:02:55.494Z,24.16
2022-09-04T18:05:52.915Z,23.99
2022-09-04T18:08:35.674Z,23.84
2022-09-04T18:11:21.595Z,23.68
2022-09-04T18:14:11.211Z,23.53
2022-09-04T18:16:39.466Z,23.39
2022-09-04T18:19:28.205Z,23.23
2022-09-04T18:22:22.088Z,23.08
2022-09-04T18:25:16.061Z,22.87
2022-09-04T18:28:11.631Z,22.76
2022-09-04T18:37:12.942Z,22.66
2022-09-04T18:37:15.979Z,22.55
2022-09-04T18:37:45.759Z,22.43
2022-09-04T18:40:16.602Z,22.31
2022-09-04T18:50:24.435Z,22.24
2022-09-04T18:50:31.189Z,22.12
2022-09-04T18:50:43.189Z,21.97
2022-09-04T18:51:44.559Z,21.88
2022-09-04T18:54:24.791Z,21.78
2022-09-04T18:57:01.289Z,21.67
2022-09-04T18:59:43.646Z,21.61
2022-09-04T19:02:22.657Z,21.49
2022-09-04T19:04:58.021Z,21.43
2022-09-04T19:07:51.054Z,21.34
2022-09-04T19:10:35.367Z,21.24
2022-09-04T19:13:28.653Z,21.14
2022-09-04T19:16:08.412Z,21.02
2022-09-04T19:18:41.634Z,20.93
2022-09-04T19:21:14.135Z,20.84
2022-09-04T19:23:49.140Z,20.80
2022-09-04T19:26:39.605Z,20.73
2022-09-04T19:29:19.051Z,20.64
2022-09-04T19:32:00.509Z,20.51
2022-09-04T19:34:43.138Z,20.42
2022-09-04T19:38:07.874Z,20.35
2022-09-04T19:45:53.598Z,20.32
2022-09-04T19:46:11.433Z,20.19
2022-09-04T19:46:29.798Z,20.09
2022-09-04T19:50:13.003Z,20.00
2022-09-04T19:53:31.249Z,19.96
2022-09-04T19:55:23.586Z,19.91
2022-09-04T19:57:52.578Z,19.84
2022-09-04T20:00:43.174Z,19.80
2022-09-04T20:03:29.243Z,19.76
2022-09-04T20:06:21.104Z,19.72
2022-09-04T20:08:56.421Z,19.64
2022-09-04T20:11:36.532Z,19.58
2022-09-04T20:14:14.369Z,19.51
2022-09-04T20:17:04.776Z,19.46
2022-09-04T20:19:52.021Z,19.41
2022-09-04T20:22:45.366Z,19.35
2022-09-04T20:25:30.843Z,19.30
2022-09-04T20:28:12.108Z,19.26
2022-09-04T20:30:43.707Z,19.18
2022-09-04T20:33:26.289Z,19.17
2022-09-04T20:36:15.436Z,19.15
2022-09-04T20:38:54.662Z,19.13
2022-09-04T20:41:45.904Z,19.07
2022-09-04T20:44:16.096Z,19.03
2022-09-04T20:52:49.679Z,18.97
2022-09-04T20:52:50.732Z,18.93
2022-09-04T20:53:09.552Z,18.88
2022-09-04T20:55:46.632Z,18.85
2022-09-04T21:03:05.179Z,18.81
2022-09-04T21:03:20.360Z,18.78
2022-09-04T21:04:56.765Z,18.69
2022-09-04T21:07:40.733Z,18.67
2022-09-04T21:10:20.203Z,18.61
2022-09-04T21:13:14.400Z,18.59
2022-09-04T21:15:48.198Z,18.55
2022-09-04T21:18:44.995Z,18.52
2022-09-04T21:21:50.833Z,18.44
2022-09-04T21:24:30.317Z,18.38
2022-09-04T21:27:29.067Z,18.37
2022-09-04T21:30:15.971Z,18.37
2022-09-04T21:33:28.098Z,18.28
2022-09-04T21:36:25.383Z,18.26
2022-09-04T21:39:11.394Z,18.21
2022-09-04T21:41:44.743Z,18.18
2022-09-04T21:44:41.836Z,18.15
2022-09-04T21:47:31.139Z,18.15
2022-09-04T21:50:23.018Z,18.11
2022-09-04T21:52:59.478Z,18.12
2022-09-04T22:00:44.540Z,18.08
2022-09-04T22:02:41.533Z,18.02
2022-09-04T22:02:54.362Z,18.04
2022-09-04T22:05:34.077Z,18.07
2022-09-04T22:13:31.370Z,18.08
2022-09-04T22:13:38.065Z,18.09
2022-09-04T22:14:43.753Z,18.07
2022-09-04T22:17:28.001Z,17.86
2022-09-04T22:20:28.006Z,18.04
2022-09-04T22:23:24.851Z,17.99
2022-09-04T22:26:23.943Z,17.95
2022-09-04T22:28:55.619Z,17.92
2022-09-04T22:31:24.264Z,17.91
2022-09-04T22:34:15.476Z,17.92
2022-09-04T22:37:17.392Z,17.82
2022-09-04T22:40:04.019Z,17.84
2022-09-04T22:42:43.486Z,17.84
2022-09-04T22:45:38.715Z,17.80
2022-09-04T22:48:12.195Z,17.77
2022-09-04T22:51:05.325Z,17.76
2022-09-04T22:53:44.810Z,17.75
2022-09-04T22:56:25.057Z,17.74
2022-09-04T22:59:26.723Z,17.71
2022-09-04T23:02:00.054Z,17.67
2022-09-04T23:05:17.030Z,17.64
2022-09-04T23:13:44.593Z,17.62
2022-09-04T23:14:01.028Z,17.62
2022-09-04T23:14:05.536Z,17.62
2022-09-04T23:17:01.512Z,17.61
2022-09-04T23:23:12.537Z,17.61
2022-09-04T23:26:50.901Z,17.60
2022-09-04T23:26:57.284Z,17.59
2022-09-04T23:29:41.313Z,17.58
2022-09-04T23:32:26.455Z,17.56
2022-09-04T23:35:21.573Z,17.53
2022-09-04T23:38:11.975Z,17.44
2022-09-04T23:40:43.481Z,17.47
2022-09-04T23:43:32.219Z,17.46
2022-09-04T23:46:18.189Z,17.41
2022-09-04T23:49:15.650Z,17.39
2022-09-04T23:52:04.169Z,17.38
2022-09-04T23:54:50.460Z,17.35
2022-09-04T23:57:36.592Z,17.35
